sensor_id;sensor_type;location;lat;lon;timestamp;pressure;altitude;pressure_sealevel;temperature;humidity
35806;BME280;21925;44.608;11.580;2023-12-28T00:00:24;102878.94;;;10.54;100.00
35806;BME280;21925;44.608;11.580;2023-12-28T00:02:49;102874.34;;;10.49;100.00
35806;BME280;21925;44.608;11.580;2023-12-28T00:05:15;102863.88;;;10.51;100.00
35806;BME280;21925;44.608;11.580;2023-12-28T00:07:41;102878.56;;;10.60;100.00
35806;BME280;21925;44.608;11.580;2023-12-28T00:10:07;102875.97;;;10.69;100.00
35806;BME280;21925;44.608;11.580;2023-12-28T00:12:33;102884.34;;;10.77;100.00
35806;BME280;21925;44.608;11.580;2023-12-28T00:14:58;102875.69;;;10.70;100.00
35806;BME280;21925;44.608;11.580;2023-12-28T00:17:24;102879.53;;;10.69;100.00
35806;BME280;21925;44.608;11.580;2023-12-28T00:19:49;102869.09;;;10.71;100.00
35806;BME280;21925;44.608;11.580;2023-12-28T00:22:15;102886.13;;;10.68;100.00
35806;BME280;21925;44.608;11.580;2023-12-28T00:24:41;102887.31;;;10.62;100.00
35806;BME280;21925;44.608;11.580;2023-12-28T00:27:06;102882.56;;;10.08;100.00
35806;BME280;21925;44.608;11.580;2023-12-28T00:29:32;102896.03;;;10.04;100.00
35806;BME280;21925;44.608;11.580;2023-12-28T00:31:59;102894.25;;;9.90;100.00
35806;BME280;21925;44.608;11.580;2023-12-28T00:34:25;102883.59;;;9.88;100.00
35806;BME280;21925;44.608;11.580;2023-12-28T00:36:50;102890.50;;;9.81;100.00
35806;BME280;21925;44.608;11.580;2023-12-28T00:39:16;102892.19;;;9.77;100.00
35806;BME280;21925;44.608;11.580;2023-12-28T00:41:41;102893.81;;;9.78;100.00
35806;BME280;21925;44.608;11.580;2023-12-28T00:44:07;102900.31;;;9.58;100.00
35806;BME280;21925;44.608;11.580;2023-12-28T00:46:35;102906.31;;;9.89;100.00
35806;BME280;21925;44.608;11.580;2023-12-28T00:49:01;102894.41;;;10.03;100.00
35806;BME280;21925;44.608;11.580;2023-12-28T00:51:26;102895.56;;;9.92;100.00
35806;BME280;21925;44.608;11.580;2023-12-28T00:53:52;102901.22;;;9.49;100.00
35806;BME280;21925;44.608;11.580;2023-12-28T00:56:17;102899.72;;;9.33;100.00
35806;BME280;21925;44.608;11.580;2023-12-28T00:58:43;102909.94;;;9.56;100.00
35806;BME280;21925;44.608;11.580;2023-12-28T01:01:09;102914.06;;;9.53;100.00
35806;BME280;21925;44.608;11.580;2023-12-28T01:03:35;102900.78;;;9.65;100.00
35806;BME280;21925;44.608;11.580;2023-12-28T01:06:01;102909.78;;;9.99;100.00
35806;BME280;21925;44.608;11.580;2023-12-28T01:08:26;102898.47;;;10.06;100.00
35806;BME280;21925;44.608;11.580;2023-12-28T01:10:52;102900.16;;;10.02;100.00
35806;BME280;21925;44.608;11.580;2023-12-28T01:13:17;102892.34;;;10.14;100.00
35806;BME280;21925;44.608;11.580;2023-12-28T01:15:44;102902.97;;;10.20;100.00
35806;BME280;21925;44.608;11.580;2023-12-28T01:18:10;102885.47;;;10.16;100.00
35806;BME280;21925;44.608;11.580;2023-12-28T01:20:36;102893.41;;;10.18;100.00
35806;BME280;21925;44.608;11.580;2023-12-28T01:23:03;102894.56;;;10.12;100.00
35806;BME280;21925;44.608;11.580;2023-12-28T01:25:29;102885.22;;;10.13;100.00
35806;BME280;21925;44.608;11.580;2023-12-28T01:27:55;102888.53;;;9.86;100.00
35806;BME280;21925;44.608;11.580;2023-12-28T01:30:20;102890.56;;;9.76;100.00
35806;BME280;21925;44.608;11.580;2023-12-28T01:32:46;102872.25;;;9.71;100.00
35806;BME280;21925;44.608;11.580;2023-12-28T01:35:11;102884.00;;;9.72;100.00
35806;BME280;21925;44.608;11.580;2023-12-28T01:37:37;102885.34;;;9.74;100.00
35806;BME280;21925;44.608;11.580;2023-12-28T01:40:03;102892.88;;;9.64;100.00
35806;BME280;21925;44.608;11.580;2023-12-28T01:42:29;102877.59;;;9.58;100.00
35806;BME280;21925;44.608;11.580;2023-12-28T01:44:57;102882.78;;;9.59;100.00
35806;BME280;21925;44.608;11.580;2023-12-28T01:47:24;102885.84;;;9.53;100.00
35806;BME280;21925;44.608;11.580;2023-12-28T01:49:52;102887.00;;;9.47;100.00
35806;BME280;21925;44.608;11.580;2023-12-28T01:52:19;102889.13;;;9.55;100.00
35806;BME280;21925;44.608;11.580;2023-12-28T01:54:45;102873.06;;;9.44;100.00
35806;BME280;21925;44.608;11.580;2023-12-28T01:57:13;102898.19;;;9.50;100.00
35806;BME280;21925;44.608;11.580;2023-12-28T01:59:40;102900.78;;;9.37;100.00
35806;BME280;21925;44.608;11.580;2023-12-28T02:02:07;102886.03;;;9.33;100.00
35806;BME280;21925;44.608;11.580;2023-12-28T02:04:33;102895.22;;;9.47;100.00
35806;BME280;21925;44.608;11.580;2023-12-28T02:07:00;102884.09;;;9.39;100.00
35806;BME280;21925;44.608;11.580;2023-12-28T02:09:26;102896.69;;;9.35;100.00
35806;BME280;21925;44.608;11.580;2023-12-28T02:11:53;102902.84;;;9.22;100.00
35806;BME280;21925;44.608;11.580;2023-12-28T02:14:20;102903.69;;;9.17;100.00
35806;BME280;21925;44.608;11.580;2023-12-28T02:19:42;102908.91;;;8.75;100.00
35806;BME280;21925;44.608;11.580;2023-12-28T02:22:10;102916.88;;;8.72;100.00
35806;BME280;21925;44.608;11.580;2023-12-28T02:27:25;102920.34;;;8.82;100.00
35806;BME280;21925;44.608;11.580;2023-12-28T02:29:51;102915.38;;;8.89;100.00
35806;BME280;21925;44.608;11.580;2023-12-28T02:32:22;102914.19;;;8.62;100.00
35806;BME280;21925;44.608;11.580;2023-12-28T02:34:53;102922.97;;;8.59;100.00
35806;BME280;21925;44.608;11.580;2023-12-28T02:37:21;102918.03;;;8.56;100.00
35806;BME280;21925;44.608;11.580;2023-12-28T02:39:49;102903.28;;;8.57;100.00
35806;BME280;21925;44.608;11.580;2023-12-28T02:42:17;102922.72;;;8.51;100.00
35806;BME280;21925;44.608;11.580;2023-12-28T02:44:43;102913.97;;;8.49;100.00
35806;BME280;21925;44.608;11.580;2023-12-28T02:47:08;102919.94;;;8.61;100.00
35806;BME280;21925;44.608;11.580;2023-12-28T02:49:34;102912.38;;;8.43;100.00
35806;BME280;21925;44.608;11.580;2023-12-28T02:51:59;102910.75;;;8.37;100.00
35806;BME280;21925;44.608;11.580;2023-12-28T02:54:25;102914.03;;;8.34;100.00
35806;BME280;21925;44.608;11.580;2023-12-28T02:56:51;102903.19;;;8.14;100.00
35806;BME280;21925;44.608;11.580;2023-12-28T02:59:17;102911.72;;;7.92;100.00
35806;BME280;21925;44.608;11.580;2023-12-28T03:01:42;102910.31;;;8.05;100.00
35806;BME280;21925;44.608;11.580;2023-12-28T03:04:08;102909.19;;;8.11;100.00
35806;BME280;21925;44.608;11.580;2023-12-28T03:06:34;102897.72;;;8.14;100.00
35806;BME280;21925;44.608;11.580;2023-12-28T03:09:01;102892.28;;;8.04;100.00
35806;BME280;21925;44.608;11.580;2023-12-28T03:11:26;102905.38;;;8.22;100.00
35806;BME280;21925;44.608;11.580;2023-12-28T03:13:53;102902.91;;;8.15;100.00
35806;BME280;21925;44.608;11.580;2023-12-28T03:16:19;102891.72;;;8.02;100.00
35806;BME280;21925;44.608;11.580;2023-12-28T03:18:45;102894.19;;;8.08;100.00
35806;BME280;21925;44.608;11.580;2023-12-28T03:21:10;102891.69;;;8.22;100.00
35806;BME280;21925;44.608;11.580;2023-12-28T03:23:36;102888.72;;;8.18;100.00
35806;BME280;21925;44.608;11.580;2023-12-28T03:26:01;102888.44;;;8.05;100.00
35806;BME280;21925;44.608;11.580;2023-12-28T03:28:27;102884.13;;;7.99;100.00
35806;BME280;21925;44.608;11.580;2023-12-28T03:30:52;102873.44;;;7.97;100.00
35806;BME280;21925;44.608;11.580;2023-12-28T03:33:18;102878.94;;;7.92;100.00
35806;BME280;21925;44.608;11.580;2023-12-28T03:35:44;102874.84;;;7.85;100.00
35806;BME280;21925;44.608;11.580;2023-12-28T03:38:10;102877.59;;;7.90;100.00
35806;BME280;21925;44.608;11.580;2023-12-28T03:40:35;102869.94;;;7.87;100.00
35806;BME280;21925;44.608;11.580;2023-12-28T03:43:01;102872.22;;;7.40;100.00
35806;BME280;21925;44.608;11.580;2023-12-28T03:45:26;102880.41;;;7.06;100.00
35806;BME280;21925;44.608;11.580;2023-12-28T03:47:52;102885.84;;;7.35;100.00
35806;BME280;21925;44.608;11.580;2023-12-28T03:50:17;102871.41;;;7.45;100.00
35806;BME280;21925;44.608;11.580;2023-12-28T03:52:43;102885.81;;;7.70;100.00
35806;BME280;21925;44.608;11.580;2023-12-28T03:55:09;102885.56;;;7.57;100.00
35806;BME280;21925;44.608;11.580;2023-12-28T03:57:34;102874.94;;;7.55;100.00
35806;BME280;21925;44.608;11.580;2023-12-28T04:00:00;102884.16;;;7.69;100.00
35806;BME280;21925;44.608;11.580;2023-12-28T04:02:26;102866.41;;;7.72;100.00
35806;BME280;21925;44.608;11.580;2023-12-28T04:04:56;102875.69;;;7.76;100.00
35806;BME280;21925;44.608;11.580;2023-12-28T04:07:24;102861.75;;;7.82;100.00
35806;BME280;21925;44.608;11.580;2023-12-28T04:09:51;102854.94;;;7.85;100.00
35806;BME280;21925;44.608;11.580;2023-12-28T04:12:16;102851.69;;;7.68;100.00
35806;BME280;21925;44.608;11.580;2023-12-28T04:14:42;102869.22;;;7.47;100.00
35806;BME280;21925;44.608;11.580;2023-12-28T04:17:07;102846.03;;;7.24;100.00
35806;BME280;21925;44.608;11.580;2023-12-28T04:19:33;102850.94;;;7.42;100.00
35806;BME280;21925;44.608;11.580;2023-12-28T04:21:59;102859.91;;;7.48;100.00
35806;BME280;21925;44.608;11.580;2023-12-28T04:24:25;102860.47;;;7.55;100.00
35806;BME280;21925;44.608;11.580;2023-12-28T04:26:51;102858.81;;;7.49;100.00
35806;BME280;21925;44.608;11.580;2023-12-28T04:29:16;102865.13;;;7.05;100.00
35806;BME280;21925;44.608;11.580;2023-12-28T04:31:42;102862.09;;;6.76;100.00
35806;BME280;21925;44.608;11.580;2023-12-28T04:34:07;102848.50;;;6.81;100.00
35806;BME280;21925;44.608;11.580;2023-12-28T04:36:42;102860.78;;;6.99;100.00
35806;BME280;21925;44.608;11.580;2023-12-28T04:39:08;102862.38;;;6.80;100.00
35806;BME280;21925;44.608;11.580;2023-12-28T04:41:34;102869.47;;;6.76;100.00
35806;BME280;21925;44.608;11.580;2023-12-28T04:43:59;102867.84;;;6.70;100.00
35806;BME280;21925;44.608;11.580;2023-12-28T04:46:25;102854.75;;;6.62;100.00
35806;BME280;21925;44.608;11.580;2023-12-28T04:48:51;102863.97;;;6.56;100.00
35806;BME280;21925;44.608;11.580;2023-12-28T04:51:16;102862.91;;;6.57;100.00
35806;BME280;21925;44.608;11.580;2023-12-28T04:53:42;102876.28;;;6.68;100.00
35806;BME280;21925;44.608;11.580;2023-12-28T04:56:08;102871.91;;;6.67;100.00
35806;BME280;21925;44.608;11.580;2023-12-28T04:58:33;102879.84;;;6.69;100.00
35806;BME280;21925;44.608;11.580;2023-12-28T05:01:01;102878.97;;;6.48;100.00
35806;BME280;21925;44.608;11.580;2023-12-28T05:03:27;102879.16;;;6.27;100.00
35806;BME280;21925;44.608;11.580;2023-12-28T05:05:52;102896.69;;;6.51;100.00
35806;BME280;21925;44.608;11.580;2023-12-28T05:08:18;102893.97;;;6.56;100.00
35806;BME280;21925;44.608;11.580;2023-12-28T05:10:43;102898.91;;;6.74;100.00
35806;BME280;21925;44.608;11.580;2023-12-28T05:13:10;102889.13;;;6.78;100.00
35806;BME280;21925;44.608;11.580;2023-12-28T05:15:35;102899.75;;;6.79;100.00
35806;BME280;21925;44.608;11.580;2023-12-28T05:18:01;102894.56;;;6.88;100.00
35806;BME280;21925;44.608;11.580;2023-12-28T05:20:27;102891.31;;;7.01;100.00
35806;BME280;21925;44.608;11.580;2023-12-28T05:22:52;102868.66;;;7.15;100.00
35806;BME280;21925;44.608;11.580;2023-12-28T05:25:18;102878.78;;;7.10;100.00
35806;BME280;21925;44.608;11.580;2023-12-28T05:27:44;102873.06;;;7.11;100.00
35806;BME280;21925;44.608;11.580;2023-12-28T05:30:09;102879.03;;;7.33;100.00
35806;BME280;21925;44.608;11.580;2023-12-28T05:32:36;102891.31;;;7.45;100.00
35806;BME280;21925;44.608;11.580;2023-12-28T05:35:02;102877.16;;;7.18;100.00
35806;BME280;21925;44.608;11.580;2023-12-28T05:37:28;102867.06;;;7.29;100.00
35806;BME280;21925;44.608;11.580;2023-12-28T05:39:54;102869.50;;;7.20;100.00
35806;BME280;21925;44.608;11.580;2023-12-28T05:42:19;102872.78;;;7.12;100.00
35806;BME280;21925;44.608;11.580;2023-12-28T05:44:45;102874.97;;;7.11;100.00
35806;BME280;21925;44.608;11.580;2023-12-28T05:47:10;102872.78;;;7.12;100.00
35806;BME280;21925;44.608;11.580;2023-12-28T05:49:37;102877.44;;;7.22;100.00
35806;BME280;21925;44.608;11.580;2023-12-28T05:52:03;102863.50;;;7.23;100.00
35806;BME280;21925;44.608;11.580;2023-12-28T05:54:28;102863.50;;;7.23;100.00
35806;BME280;21925;44.608;11.580;2023-12-28T05:56:54;102870.88;;;7.18;100.00
35806;BME280;21925;44.608;11.580;2023-12-28T05:59:20;102879.88;;;7.09;100.00
35806;BME280;21925;44.608;11.580;2023-12-28T06:01:47;102873.56;;;6.83;100.00
35806;BME280;21925;44.608;11.580;2023-12-28T06:04:12;102869.19;;;6.77;100.00
35806;BME280;21925;44.608;11.580;2023-12-28T06:06:38;102863.47;;;6.74;100.00
35806;BME280;21925;44.608;11.580;2023-12-28T06:09:04;102862.94;;;6.82;100.00
35806;BME280;21925;44.608;11.580;2023-12-28T06:11:30;102869.50;;;6.91;100.00
35806;BME280;21925;44.608;11.580;2023-12-28T06:13:56;102856.94;;;6.85;100.00
35806;BME280;21925;44.608;11.580;2023-12-28T06:16:22;102856.16;;;6.89;100.00
35806;BME280;21925;44.608;11.580;2023-12-28T06:18:48;102846.03;;;6.90;100.00
35806;BME280;21925;44.608;11.580;2023-12-28T06:21:14;102827.50;;;6.82;100.00
35806;BME280;21925;44.608;11.580;2023-12-28T06:23:40;102851.50;;;6.70;100.00
35806;BME280;21925;44.608;11.580;2023-12-28T06:26:05;102844.94;;;6.76;100.00
35806;BME280;21925;44.608;11.580;2023-12-28T06:28:32;102856.41;;;6.78;100.00
35806;BME280;21925;44.608;11.580;2023-12-28T06:30:58;102861.84;;;6.68;100.00
35806;BME280;21925;44.608;11.580;2023-12-28T06:33:27;102845.47;;;6.68;100.00
35806;BME280;21925;44.608;11.580;2023-12-28T06:35:53;102841.13;;;6.67;100.00
35806;BME280;21925;44.608;11.580;2023-12-28T06:38:18;102855.53;;;6.52;100.00
35806;BME280;21925;44.608;11.580;2023-12-28T06:40:44;102847.66;;;6.66;100.00
35806;BME280;21925;44.608;11.580;2023-12-28T06:43:09;102850.63;;;6.59;100.00
35806;BME280;21925;44.608;11.580;2023-12-28T06:45:35;102849.25;;;6.57;100.00
35806;BME280;21925;44.608;11.580;2023-12-28T06:48:00;102849.81;;;6.59;100.00
35806;BME280;21925;44.608;11.580;2023-12-28T06:50:26;102864.81;;;6.56;100.00
35806;BME280;21925;44.608;11.580;2023-12-28T06:52:52;102866.66;;;6.36;100.00
35806;BME280;21925;44.608;11.580;2023-12-28T06:55:17;102865.25;;;6.24;100.00
35806;BME280;21925;44.608;11.580;2023-12-28T06:57:43;102875.88;;;6.30;100.00
35806;BME280;21925;44.608;11.580;2023-12-28T07:00:09;102878.09;;;6.33;100.00
35806;BME280;21925;44.608;11.580;2023-12-28T07:02:35;102877.53;;;6.26;100.00
35806;BME280;21925;44.608;11.580;2023-12-28T07:05:01;102875.66;;;6.36;100.00
35806;BME280;21925;44.608;11.580;2023-12-28T07:07:27;102871.56;;;6.39;100.00
35806;BME280;21925;44.608;11.580;2023-12-28T07:09:52;102872.41;;;6.39;100.00
35806;BME280;21925;44.608;11.580;2023-12-28T07:12:18;102894.47;;;6.43;100.00
35806;BME280;21925;44.608;11.580;2023-12-28T07:14:45;102894.22;;;6.54;100.00
35806;BME280;21925;44.608;11.580;2023-12-28T07:17:11;102892.84;;;6.42;100.00
35806;BME280;21925;44.608;11.580;2023-12-28T07:19:37;102907.50;;;6.31;100.00
35806;BME280;21925;44.608;11.580;2023-12-28T07:22:03;102896.41;;;6.52;100.00
35806;BME280;21925;44.608;11.580;2023-12-28T07:24:28;102892.03;;;6.51;100.00
35806;BME280;21925;44.608;11.580;2023-12-28T07:26:54;102892.03;;;6.51;100.00
35806;BME280;21925;44.608;11.580;2023-12-28T07:29:20;102901.88;;;6.57;100.00
35806;BME280;21925;44.608;11.580;2023-12-28T07:31:45;102899.69;;;6.59;100.00
35806;BME280;21925;44.608;11.580;2023-12-28T07:34:11;102898.34;;;6.72;100.00
35806;BME280;21925;44.608;11.580;2023-12-28T07:36:37;102897.31;;;6.78;100.00
35806;BME280;21925;44.608;11.580;2023-12-28T07:39:04;102894.00;;;6.66;100.00
35806;BME280;21925;44.608;11.580;2023-12-28T07:41:29;102897.75;;;6.55;100.00
35806;BME280;21925;44.608;11.580;2023-12-28T07:43:55;102912.50;;;6.64;100.00
35806;BME280;21925;44.608;11.580;2023-12-28T07:46:20;102922.38;;;6.70;100.00
35806;BME280;21925;44.608;11.580;2023-12-28T07:48:46;102923.16;;;6.65;100.00
35806;BME280;21925;44.608;11.580;2023-12-28T07:51:13;102927.56;;;6.81;100.00
35806;BME280;21925;44.608;11.580;2023-12-28T07:53:38;102922.94;;;6.92;100.00
35806;BME280;21925;44.608;11.580;2023-12-28T07:56:04;102932.22;;;7.06;100.00
35806;BME280;21925;44.608;11.580;2023-12-28T07:58:30;102937.72;;;7.11;100.00
35806;BME280;21925;44.608;11.580;2023-12-28T08:00:56;102930.31;;;7.16;100.00
35806;BME280;21925;44.608;11.580;2023-12-28T08:03:21;102924.63;;;7.17;100.00
35806;BME280;21925;44.608;11.580;2023-12-28T08:05:47;102931.16;;;7.02;100.00
35806;BME280;21925;44.608;11.580;2023-12-28T08:08:13;102930.31;;;7.01;100.00
35806;BME280;21925;44.608;11.580;2023-12-28T08:10:38;102938.25;;;7.17;100.00
35806;BME280;21925;44.608;11.580;2023-12-28T08:13:04;102944.81;;;7.21;100.00
35806;BME280;21925;44.608;11.580;2023-12-28T08:15:29;102946.19;;;7.29;100.00
35806;BME280;21925;44.608;11.580;2023-12-28T08:17:55;102947.28;;;7.38;100.00
35806;BME280;21925;44.608;11.580;2023-12-28T08:20:20;102947.00;;;7.39;100.00
35806;BME280;21925;44.608;11.580;2023-12-28T08:22:46;102957.09;;;7.49;100.00
35806;BME280;21925;44.608;11.580;2023-12-28T08:25:12;102962.00;;;7.57;100.00
35806;BME280;21925;44.608;11.580;2023-12-28T08:27:37;102964.22;;;7.55;100.00
35806;BME280;21925;44.608;11.580;2023-12-28T08:30:04;102954.63;;;7.62;100.00
35806;BME280;21925;44.608;11.580;2023-12-28T08:32:30;102969.38;;;7.71;100.00
35806;BME280;21925;44.608;11.580;2023-12-28T08:34:56;102951.06;;;7.77;100.00
35806;BME280;21925;44.608;11.580;2023-12-28T08:37:21;102964.41;;;7.93;100.00
35806;BME280;21925;44.608;11.580;2023-12-28T08:39:47;102945.56;;;7.96;100.00
35806;BME280;21925;44.608;11.580;2023-12-28T08:42:12;102951.56;;;8.03;100.00
35806;BME280;21925;44.608;11.580;2023-12-28T08:44:38;102945.81;;;8.05;100.00
35806;BME280;21925;44.608;11.580;2023-12-28T08:47:03;102951.50;;;8.33;100.00
35806;BME280;21925;44.608;11.580;2023-12-28T08:49:29;102962.41;;;8.43;100.00
35806;BME280;21925;44.608;11.580;2023-12-28T08:51:55;102963.16;;;8.59;100.00
35806;BME280;21925;44.608;11.580;2023-12-28T08:54:20;102964.75;;;8.70;100.00
35806;BME280;21925;44.608;11.580;2023-12-28T08:56:46;102945.91;;;8.63;100.00
35806;BME280;21925;44.608;11.580;2023-12-28T08:59:13;102952.13;;;8.73;100.00
35806;BME280;21925;44.608;11.580;2023-12-28T09:01:39;102970.38;;;8.88;100.00
35806;BME280;21925;44.608;11.580;2023-12-28T09:04:05;102960.69;;;9.05;100.00
35806;BME280;21925;44.608;11.580;2023-12-28T09:06:30;102961.13;;;9.22;100.00
35806;BME280;21925;44.608;11.580;2023-12-28T09:08:56;102966.78;;;9.36;100.00
35806;BME280;21925;44.608;11.580;2023-12-28T09:11:22;102960.06;;;9.56;100.00
35806;BME280;21925;44.608;11.580;2023-12-28T09:13:47;102954.59;;;9.56;100.00
35806;BME280;21925;44.608;11.580;2023-12-28T09:16:14;102969.97;;;9.81;100.00
35806;BME280;21925;44.608;11.580;2023-12-28T09:18:40;102968.75;;;9.92;100.00
35806;BME280;21925;44.608;11.580;2023-12-28T09:21:08;102966.78;;;9.97;100.00
35806;BME280;21925;44.608;11.580;2023-12-28T09:23:34;102971.75;;;9.95;100.00
35806;BME280;21925;44.608;11.580;2023-12-28T09:26:01;102964.16;;;10.16;100.00
35806;BME280;21925;44.608;11.580;2023-12-28T09:28:28;102961.88;;;10.23;100.00
35806;BME280;21925;44.608;11.580;2023-12-28T09:30:54;102970.88;;;10.28;100.00
35806;BME280;21925;44.608;11.580;2023-12-28T09:33:20;102959.41;;;10.44;100.00
35806;BME280;21925;44.608;11.580;2023-12-28T09:35:47;102950.75;;;10.56;100.00
35806;BME280;21925;44.608;11.580;2023-12-28T09:38:13;102959.19;;;10.64;100.00
35806;BME280;21925;44.608;11.580;2023-12-28T09:40:41;102956.16;;;10.84;100.00
35806;BME280;21925;44.608;11.580;2023-12-28T09:43:24;102956.41;;;11.06;100.00
35806;BME280;21925;44.608;11.580;2023-12-28T09:45:53;102941.38;;;11.17;100.00
35806;BME280;21925;44.608;11.580;2023-12-28T09:48:22;102930.25;;;11.27;100.00
35806;BME280;21925;44.608;11.580;2023-12-28T09:50:53;102931.09;;;11.41;100.00
35806;BME280;21925;44.608;11.580;2023-12-28T09:53:24;102925.41;;;11.37;100.00
35806;BME280;21925;44.608;11.580;2023-12-28T09:55:50;102933.63;;;11.56;100.00
35806;BME280;21925;44.608;11.580;2023-12-28T09:58:20;102931.13;;;11.73;100.00
35806;BME280;21925;44.608;11.580;2023-12-28T10:00:47;102918.44;;;11.77;100.00
35806;BME280;21925;44.608;11.580;2023-12-28T10:03:13;102919.97;;;11.83;100.00
35806;BME280;21925;44.608;11.580;2023-12-28T10:05:43;102912.31;;;11.80;100.00
35806;BME280;21925;44.608;11.580;2023-12-28T10:08:16;102909.28;;;11.94;100.00
35806;BME280;21925;44.608;11.580;2023-12-28T10:10:42;102903.06;;;12.16;100.00
35806;BME280;21925;44.608;11.580;2023-12-28T10:13:09;102907.88;;;12.10;100.00
35806;BME280;21925;44.608;11.580;2023-12-28T10:15:37;102900.72;;;12.36;100.00
35806;BME280;21925;44.608;11.580;2023-12-28T10:18:06;102902.13;;;12.61;100.00
35806;BME280;21925;44.608;11.580;2023-12-28T10:20:32;102902.38;;;12.72;100.00
35806;BME280;21925;44.608;11.580;2023-12-28T10:22:59;102888.53;;;12.91;100.00
35806;BME280;21925;44.608;11.580;2023-12-28T10:25:25;102884.94;;;12.90;100.00
35806;BME280;21925;44.608;11.580;2023-12-28T10:27:51;102864.56;;;12.78;100.00
35806;BME280;21925;44.608;11.580;2023-12-28T10:30:22;102878.69;;;12.85;100.00
35806;BME280;21925;44.608;11.580;2023-12-28T10:32:48;102868.50;;;12.99;100.00
35806;BME280;21925;44.608;11.580;2023-12-28T10:35:15;102869.88;;;13.32;100.00
35806;BME280;21925;44.608;11.580;2023-12-28T10:37:42;102862.47;;;13.19;100.00
35806;BME280;21925;44.608;11.580;2023-12-28T10:40:11;102867.38;;;13.22;100.00
35806;BME280;21925;44.608;11.580;2023-12-28T10:43:06;102854.72;;;13.21;100.00
35806;BME280;21925;44.608;11.580;2023-12-28T10:45:32;102858.38;;;13.08;100.00
35806;BME280;21925;44.608;11.580;2023-12-28T10:48:06;102860.25;;;12.99;100.00
35806;BME280;21925;44.608;11.580;2023-12-28T10:50:51;102861.22;;;13.25;100.00
35806;BME280;21925;44.608;11.580;2023-12-28T10:55:48;102845.66;;;13.51;100.00
35806;BME280;21925;44.608;11.580;2023-12-28T10:58:50;102838.59;;;13.66;100.00
35806;BME280;21925;44.608;11.580;2023-12-28T11:01:31;102842.28;;;13.53;100.00
35806;BME280;21925;44.608;11.580;2023-12-28T11:04:10;102831.69;;;13.69;100.00
35806;BME280;21925;44.608;11.580;2023-12-28T11:06:40;102820.50;;;13.82;100.00
35806;BME280;21925;44.608;11.580;2023-12-28T11:09:08;102830.06;;;13.76;100.00
35806;BME280;21925;44.608;11.580;2023-12-28T11:11:36;102824.47;;;13.59;100.00
35806;BME280;21925;44.608;11.580;2023-12-28T11:14:03;102816.72;;;13.70;100.00
35806;BME280;21925;44.608;11.580;2023-12-28T11:16:30;102812.94;;;13.57;100.00
35806;BME280;21925;44.608;11.580;2023-12-28T11:18:58;102813.84;;;13.75;100.00
35806;BME280;21925;44.608;11.580;2023-12-28T11:21:25;102812.47;;;13.94;100.00
35806;BME280;21925;44.608;11.580;2023-12-28T11:23:51;102811.78;;;13.97;100.00
35806;BME280;21925;44.608;11.580;2023-12-28T11:26:18;102797.41;;;14.09;100.00
35806;BME280;21925;44.608;11.580;2023-12-28T11:28:44;102801.31;;;14.08;100.00
35806;BME280;21925;44.608;11.580;2023-12-28T11:31:10;102805.72;;;14.17;100.00
35806;BME280;21925;44.608;11.580;2023-12-28T11:33:50;102782.63;;;13.96;100.00
35806;BME280;21925;44.608;11.580;2023-12-28T11:36:22;102791.91;;;14.09;100.00
35806;BME280;21925;44.608;11.580;2023-12-28T11:38:51;102797.00;;;14.32;100.00
35806;BME280;21925;44.608;11.580;2023-12-28T11:41:20;102795.69;;;14.38;100.00
35806;BME280;21925;44.608;11.580;2023-12-28T11:43:53;102795.03;;;14.24;100.00
35806;BME280;21925;44.608;11.580;2023-12-28T11:46:21;102791.81;;;14.31;100.00
35806;BME280;21925;44.608;11.580;2023-12-28T11:48:47;102786.41;;;14.26;100.00
35806;BME280;21925;44.608;11.580;2023-12-28T11:51:13;102781.72;;;14.26;100.00
35806;BME280;21925;44.608;11.580;2023-12-28T11:53:39;102774.44;;;14.38;100.00
35806;BME280;21925;44.608;11.580;2023-12-28T11:56:07;102776.69;;;14.79;100.00
35806;BME280;21925;44.608;11.580;2023-12-28T11:58:35;102759.28;;;14.87;100.00
35806;BME280;21925;44.608;11.580;2023-12-28T12:01:04;102763.88;;;14.66;100.00
35806;BME280;21925;44.608;11.580;2023-12-28T12:03:29;102748.75;;;14.72;100.00
35806;BME280;21925;44.608;11.580;2023-12-28T12:05:55;102748.47;;;14.56;100.00
35806;BME280;21925;44.608;11.580;2023-12-28T12:08:23;102747.00;;;14.76;100.00
35806;BME280;21925;44.608;11.580;2023-12-28T12:11:00;102742.22;;;15.02;100.00
35806;BME280;21925;44.608;11.580;2023-12-28T12:13:27;102736.25;;;14.83;100.00
35806;BME280;21925;44.608;11.580;2023-12-28T12:15:53;102743.41;;;14.67;100.00
35806;BME280;21925;44.608;11.580;2023-12-28T12:18:19;102723.91;;;14.72;100.00
35806;BME280;21925;44.608;11.580;2023-12-28T12:20:45;102730.72;;;14.83;100.00
35806;BME280;21925;44.608;11.580;2023-12-28T12:23:10;102731.69;;;14.87;100.00
35806;BME280;21925;44.608;11.580;2023-12-28T12:25:38;102725.97;;;15.00;100.00
35806;BME280;21925;44.608;11.580;2023-12-28T12:28:06;102721.22;;;15.17;100.00
35806;BME280;21925;44.608;11.580;2023-12-28T12:30:32;102721.84;;;15.31;100.00
35806;BME280;21925;44.608;11.580;2023-12-28T12:32:57;102708.69;;;15.86;100.00
35806;BME280;21925;44.608;11.580;2023-12-28T12:35:24;102710.31;;;15.87;100.00
35806;BME280;21925;44.608;11.580;2023-12-28T12:37:49;102704.38;;;15.77;100.00
35806;BME280;21925;44.608;11.580;2023-12-28T12:40:17;102699.06;;;15.34;100.00
35806;BME280;21925;44.608;11.580;2023-12-28T12:42:54;102705.81;;;15.54;100.00